Time;durP1;ratioP1;P1;durP2;ratioP2;P2;SDS_P1;SDS_P2;PMS_P1;PMS_P2;Temp;Humidity;BMP_temperature;BMP_pressure;BME280_temperature;BME280_humidity;BME280_pressure;Samples;Min_cycle;Max_cycle;Signal;HPM_P1;HPM_P2
2022/07/16 00:03:26;;;;;;;3.10;1.50;;;;;;;;;;4955712;29;20045;-77
2022/07/16 00:05:54;;;;;;;3.38;1.75;;;;;;;;;;4956354;29;20043;-78
2022/07/16 00:08:21;;;;;;;2.08;1.88;;;;;;;;;;4956929;29;20047;-78
2022/07/16 00:10:47;;;;;;;2.08;1.60;;;;;;;;;;4955963;28;20529;-78
2022/07/16 00:13:13;;;;;;;2.38;1.90;;;;;;;;;;4955985;28;20075;-78
2022/07/16 00:15:39;;;;;;;2.88;1.58;;;;;;;;;;4955930;29;20549;-78
2022/07/16 00:20:50;;;;;;;2.17;1.60;;;;;;;;;;4955725;29;20042;-78
2022/07/16 00:23:16;;;;;;;1.80;1.70;;;;;;;;;;4959547;28;20486;-78
2022/07/16 00:25:42;;;;;;;2.53;1.70;;;;;;;;;;4959676;29;20035;-78
2022/07/16 00:28:08;;;;;;;2.85;1.50;;;;;;;;;;4960032;28;20053;-77
2022/07/16 00:30:35;;;;;;;2.05;1.50;;;;;;;;;;4959731;29;20043;-78
2022/07/16 00:33:01;;;;;;;3.35;1.35;;;;;;;;;;4959714;29;20050;-78
2022/07/16 00:35:27;;;;;;;2.40;1.60;;;;;;;;;;4959759;29;20047;-77
2022/07/16 00:37:54;;;;;;;1.65;1.55;;;;;;;;;;4960331;29;20098;-78
2022/07/16 00:40:20;;;;;;;1.60;1.50;;;;;;;;;;4959454;29;20043;-78
2022/07/16 00:42:46;;;;;;;1.60;1.50;;;;;;;;;;4959692;29;20039;-77
2022/07/16 00:45:12;;;;;;;2.03;1.50;;;;;;;;;;4960063;29;20051;-78
2022/07/16 00:47:38;;;;;;;1.50;1.40;;;;;;;;;;4960075;28;20055;-77
2022/07/16 00:50:05;;;;;;;2.17;1.65;;;;;;;;;;4959260;28;20043;-78
2022/07/16 00:52:34;;;;;;;3.53;1.85;;;;;;;;;;4959483;29;20043;-78
2022/07/16 00:55:00;;;;;;;1.77;1.60;;;;;;;;;;4959499;29;20521;-78
2022/07/16 00:57:26;;;;;;;1.60;1.50;;;;;;;;;;4959444;29;20050;-78
2022/07/16 00:59:52;;;;;;;1.60;1.50;;;;;;;;;;4959641;29;20047;-78
2022/07/16 01:02:18;;;;;;;2.53;1.42;;;;;;;;;;4959366;28;20035;-78
2022/07/16 01:04:45;;;;;;;3.50;1.55;;;;;;;;;;4958858;29;20054;-78
2022/07/16 01:07:12;;;;;;;2.20;1.65;;;;;;;;;;4958949;28;20043;-78
2022/07/16 01:09:38;;;;;;;3.55;1.83;;;;;;;;;;4959288;29;20565;-78
2022/07/16 01:12:04;;;;;;;2.50;1.70;;;;;;;;;;4958849;29;20043;-78
2022/07/16 01:14:30;;;;;;;4.43;1.50;;;;;;;;;;4958847;29;20050;-77
2022/07/16 01:16:57;;;;;;;2.50;1.70;;;;;;;;;;4958892;28;20498;-78
2022/07/16 01:19:23;;;;;;;3.65;1.85;;;;;;;;;;4958558;28;20086;-77
2022/07/16 01:21:49;;;;;;;2.67;1.65;;;;;;;;;;4959115;28;20035;-78
2022/07/16 01:24:16;;;;;;;3.15;1.60;;;;;;;;;;4958961;29;20175;-77
2022/07/16 01:26:42;;;;;;;3.25;1.67;;;;;;;;;;4958635;28;20043;-78
2022/07/16 01:29:08;;;;;;;4.07;1.70;;;;;;;;;;4959446;29;20501;-78
2022/07/16 01:31:34;;;;;;;1.73;1.30;;;;;;;;;;4958810;29;20051;-78
2022/07/16 01:37:03;;;;;;;2.45;1.42;;;;;;;;;;4958198;29;20090;-78
2022/07/16 01:39:31;;;;;;;1.75;1.65;;;;;;;;;;4959278;28;20040;-78
2022/07/16 01:41:58;;;;;;;5.88;1.85;;;;;;;;;;4958733;28;20043;-78
2022/07/16 01:44:25;;;;;;;1.60;1.50;;;;;;;;;;4958998;28;20039;-78
2022/07/16 01:46:52;;;;;;;2.05;1.95;;;;;;;;;;4958599;28;20166;-78
2022/07/16 01:49:18;;;;;;;1.88;1.60;;;;;;;;;;4958552;29;20561;-78
2022/07/16 01:51:44;;;;;;;1.80;1.70;;;;;;;;;;4958132;28;20047;-78
2022/07/16 01:54:11;;;;;;;8.93;1.90;;;;;;;;;;4958188;28;20055;-78
2022/07/16 01:56:37;;;;;;;3.63;1.63;;;;;;;;;;4958514;28;20039;-78
2022/07/16 01:59:03;;;;;;;1.90;1.80;;;;;;;;;;4958349;29;20052;-78
2022/07/16 02:01:29;;;;;;;2.28;1.73;;;;;;;;;;4958186;28;20043;-78
2022/07/16 02:03:55;;;;;;;1.80;1.60;;;;;;;;;;4958373;28;20046;-77
2022/07/16 02:06:22;;;;;;;1.65;1.55;;;;;;;;;;4958308;29;20043;-78
2022/07/16 02:08:48;;;;;;;1.70;1.60;;;;;;;;;;4958480;28;20053;-78
2022/07/16 02:11:14;;;;;;;1.80;1.35;;;;;;;;;;4956814;29;20149;-78
2022/07/16 02:13:40;;;;;;;1.73;1.63;;;;;;;;;;4958107;29;20051;-78
2022/07/16 02:16:06;;;;;;;1.85;1.63;;;;;;;;;;4958016;29;20039;-78
2022/07/16 02:18:32;;;;;;;1.80;1.70;;;;;;;;;;4957703;29;20090;-78
2022/07/16 02:20:59;;;;;;;2.15;1.95;;;;;;;;;;4957922;28;20053;-78
2022/07/16 02:23:25;;;;;;;2.00;1.80;;;;;;;;;;4957869;28;20129;-78
2022/07/16 02:25:51;;;;;;;2.72;1.80;;;;;;;;;;4957831;29;20126;-78
2022/07/16 02:28:17;;;;;;;2.13;1.20;;;;;;;;;;4957957;28;20077;-78
2022/07/16 02:30:47;;;;;;;1.77;1.67;;;;;;;;;;4957823;29;20110;-78
2022/07/16 02:33:15;;;;;;;3.28;1.88;;;;;;;;;;4957849;28;20048;-78
2022/07/16 02:35:41;;;;;;;3.80;1.73;;;;;;;;;;4957558;28;20114;-78
2022/07/16 02:38:08;;;;;;;2.58;1.77;;;;;;;;;;4957799;28;20174;-78
2022/07/16 02:40:35;;;;;;;2.22;1.85;;;;;;;;;;4957537;29;20043;-78
2022/07/16 02:43:01;;;;;;;2.08;1.50;;;;;;;;;;4957265;28;20039;-79
2022/07/16 02:45:28;;;;;;;4.68;1.60;;;;;;;;;;4956933;28;20518;-78
2022/07/16 02:47:54;;;;;;;1.60;1.50;;;;;;;;;;4957753;29;20051;-78
2022/07/16 02:50:20;;;;;;;2.10;1.45;;;;;;;;;;4957398;29;20039;-78
2022/07/16 02:52:46;;;;;;;2.88;1.60;;;;;;;;;;4957279;29;20054;-77
2022/07/16 02:55:13;;;;;;;1.80;1.70;;;;;;;;;;4957298;28;20054;-77
2022/07/16 02:57:39;;;;;;;3.08;2.15;;;;;;;;;;4957248;29;20051;-78
2022/07/16 03:00:06;;;;;;;2.58;2.00;;;;;;;;;;4957086;29;20045;-77
2022/07/16 03:02:32;;;;;;;1.98;1.77;;;;;;;;;;4957007;28;20457;-78
2022/07/16 03:04:58;;;;;;;3.30;1.98;;;;;;;;;;4957114;28;20525;-78
2022/07/16 03:07:24;;;;;;;3.65;1.38;;;;;;;;;;4957077;29;20130;-78
2022/07/16 03:09:50;;;;;;;3.83;1.77;;;;;;;;;;4955743;29;20409;-78
2022/07/16 03:12:18;;;;;;;2.53;1.58;;;;;;;;;;4956668;28;20043;-78
2022/07/16 03:14:45;;;;;;;2.20;1.85;;;;;;;;;;4957494;29;20047;-78
2022/07/16 03:17:11;;;;;;;2.03;1.83;;;;;;;;;;4956910;29;20581;-78
2022/07/16 03:19:37;;;;;;;2.05;1.63;;;;;;;;;;4956579;29;20051;-78
2022/07/16 03:22:03;;;;;;;1.90;1.80;;;;;;;;;;4956893;29;20043;-78
2022/07/16 03:24:30;;;;;;;3.65;1.98;;;;;;;;;;4956536;28;20368;-78
2022/07/16 03:26:56;;;;;;;1.98;1.83;;;;;;;;;;4956804;28;20035;-78
2022/07/16 03:29:23;;;;;;;2.20;1.52;;;;;;;;;;4956809;28;20055;-78
2022/07/16 03:31:49;;;;;;;2.78;1.75;;;;;;;;;;4956400;29;20081;-77
2022/07/16 03:34:16;;;;;;;2.25;1.63;;;;;;;;;;4956320;28;20051;-78
2022/07/16 03:36:42;;;;;;;2.33;1.95;;;;;;;;;;4956818;28;20105;-78
2022/07/16 03:39:08;;;;;;;2.97;1.98;;;;;;;;;;4957132;28;20043;-77
2022/07/16 03:41:35;;;;;;;1.70;1.60;;;;;;;;;;4956412;29;20051;-78
2022/07/16 03:44:02;;;;;;;3.08;1.90;;;;;;;;;;4956921;28;20126;-78
2022/07/16 03:46:29;;;;;;;2.05;1.88;;;;;;;;;;4956373;29;20054;-77
2022/07/16 03:48:55;;;;;;;5.75;1.73;;;;;;;;;;4956230;28;20042;-78
2022/07/16 03:51:21;;;;;;;1.92;1.70;;;;;;;;;;4956505;29;20494;-78
2022/07/16 03:53:48;;;;;;;2.80;2.08;;;;;;;;;;4956740;29;20061;-78
2022/07/16 03:56:14;;;;;;;2.20;2.03;;;;;;;;;;4955591;29;20067;-78
2022/07/16 03:58:40;;;;;;;3.05;1.80;;;;;;;;;;4956429;28;20051;-78
2022/07/16 04:01:07;;;;;;;2.83;2.08;;;;;;;;;;4956197;29;20071;-78
2022/07/16 04:03:33;;;;;;;3.22;2.03;;;;;;;;;;4955938;29;20047;-77
2022/07/16 04:06:00;;;;;;;1.92;1.77;;;;;;;;;;4956413;28;20482;-77
2022/07/16 04:08:26;;;;;;;2.20;1.65;;;;;;;;;;4955187;29;20458;-77
2022/07/16 04:10:52;;;;;;;4.07;2.33;;;;;;;;;;4955919;29;20098;-77
2022/07/16 04:13:18;;;;;;;3.22;1.90;;;;;;;;;;4956756;28;20082;-77
2022/07/16 04:15:44;;;;;;;1.73;1.63;;;;;;;;;;4955997;29;20039;-77
2022/07/16 04:18:11;;;;;;;6.82;2.13;;;;;;;;;;4956408;29;21600;-77
2022/07/16 04:20:37;;;;;;;2.28;1.83;;;;;;;;;;4956383;29;20118;-77
2022/07/16 04:23:03;;;;;;;5.50;2.13;;;;;;;;;;4956741;28;20047;-78
2022/07/16 04:25:30;;;;;;;3.72;2.13;;;;;;;;;;4955018;29;20499;-77
2022/07/16 04:27:56;;;;;;;2.15;2.05;;;;;;;;;;4956475;28;20474;-77
2022/07/16 04:30:22;;;;;;;2.10;1.90;;;;;;;;;;4955807;29;20537;-77
2022/07/16 04:32:48;;;;;;;2.83;1.70;;;;;;;;;;4955615;28;20043;-77
2022/07/16 04:35:15;;;;;;;2.60;1.80;;;;;;;;;;4956073;29;20043;-77
2022/07/16 04:37:41;;;;;;;2.75;2.00;;;;;;;;;;4955662;28;20058;-77
2022/07/16 04:40:08;;;;;;;2.85;2.08;;;;;;;;;;4956306;29;20047;-77
2022/07/16 04:42:36;;;;;;;3.90;2.20;;;;;;;;;;4956046;28;20051;-77
2022/07/16 04:45:03;;;;;;;1.92;1.83;;;;;;;;;;4956006;29;20036;-78
2022/07/16 04:47:29;;;;;;;5.70;2.20;;;;;;;;;;4955375;29;20573;-77
2022/07/16 04:49:55;;;;;;;2.80;1.98;;;;;;;;;;4955712;29;20039;-77
2022/07/16 04:52:21;;;;;;;3.85;2.00;;;;;;;;;;4955865;28;20117;-77
2022/07/16 04:54:47;;;;;;;3.40;2.05;;;;;;;;;;4956167;29;20573;-77
2022/07/16 04:57:13;;;;;;;5.78;2.30;;;;;;;;;;4955936;29;20045;-77
2022/07/16 04:59:39;;;;;;;3.60;1.75;;;;;;;;;;4956516;29;20055;-77
2022/07/16 05:04:50;;;;;;;1.90;1.80;;;;;;;;;;4955197;29;20159;-77
2022/07/16 05:07:16;;;;;;;3.25;1.90;;;;;;;;;;4955552;28;20494;-77
2022/07/16 05:09:42;;;;;;;3.13;2.15;;;;;;;;;;4959216;29;20051;-77
2022/07/16 05:12:09;;;;;;;2.78;1.92;;;;;;;;;;4959117;29;20091;-77
2022/07/16 05:14:35;;;;;;;1.88;1.65;;;;;;;;;;4959154;29;20053;-78
2022/07/16 05:17:01;;;;;;;4.28;2.35;;;;;;;;;;4958863;29;20043;-77
2022/07/16 05:19:27;;;;;;;2.42;1.90;;;;;;;;;;4959523;29;20486;-77
2022/07/16 05:21:53;;;;;;;1.90;1.80;;;;;;;;;;4959022;29;20047;-78
2022/07/16 05:24:19;;;;;;;3.88;1.98;;;;;;;;;;4959756;29;20478;-77
2022/07/16 05:26:45;;;;;;;2.10;1.92;;;;;;;;;;4959272;28;20126;-77
2022/07/16 05:29:11;;;;;;;2.20;2.00;;;;;;;;;;4959802;29;20548;-77
2022/07/16 05:31:37;;;;;;;5.30;2.22;;;;;;;;;;4959180;28;20039;-77
2022/07/16 05:34:04;;;;;;;1.90;1.80;;;;;;;;;;4958674;29;20051;-77
2022/07/16 05:36:30;;;;;;;4.95;2.15;;;;;;;;;;4958771;29;20046;-78
2022/07/16 05:38:56;;;;;;;2.63;2.00;;;;;;;;;;4958505;29;20129;-77
2022/07/16 05:41:22;;;;;;;2.97;2.28;;;;;;;;;;4958946;29;20082;-78
2022/07/16 05:43:48;;;;;;;2.67;1.80;;;;;;;;;;4959084;28;20105;-77
2022/07/16 05:46:14;;;;;;;4.10;2.25;;;;;;;;;;4959150;28;20122;-77
2022/07/16 05:48:40;;;;;;;2.78;2.05;;;;;;;;;;4959057;29;20047;-77
2022/07/16 05:51:06;;;;;;;1.95;1.85;;;;;;;;;;4958737;29;20078;-78
2022/07/16 05:53:33;;;;;;;2.03;1.85;;;;;;;;;;4958463;29;20610;-77
2022/07/16 05:55:59;;;;;;;3.78;2.25;;;;;;;;;;4958436;28;20043;-77
2022/07/16 05:58:25;;;;;;;3.00;1.88;;;;;;;;;;4958700;29;20047;-77
2022/07/16 06:00:51;;;;;;;3.45;1.90;;;;;;;;;;4958306;29;20039;-77
2022/07/16 06:03:17;;;;;;;7.38;2.25;;;;;;;;;;4958352;29;20035;-77
2022/07/16 06:05:43;;;;;;;3.45;2.22;;;;;;;;;;4958601;29;20039;-77
2022/07/16 06:08:09;;;;;;;2.85;2.45;;;;;;;;;;4958842;29;20491;-77
2022/07/16 06:10:35;;;;;;;2.33;1.65;;;;;;;;;;4958301;29;20044;-77
2022/07/16 06:13:02;;;;;;;8.63;2.22;;;;;;;;;;4958057;29;20519;-77
2022/07/16 06:15:28;;;;;;;2.38;2.17;;;;;;;;;;4958292;29;20042;-78
2022/07/16 06:17:54;;;;;;;4.18;2.47;;;;;;;;;;4957633;29;20450;-77
2022/07/16 06:20:20;;;;;;;3.95;2.00;;;;;;;;;;4957443;28;20050;-77
2022/07/16 06:22:46;;;;;;;3.70;2.30;;;;;;;;;;4957921;29;20042;-77
2022/07/16 06:25:13;;;;;;;4.20;2.33;;;;;;;;;;4958353;29;20047;-78
2022/07/16 06:27:43;;;;;;;1.98;1.80;;;;;;;;;;4958465;28;20487;-77
2022/07/16 06:30:10;;;;;;;3.85;2.45;;;;;;;;;;4957443;28;20122;-77
2022/07/16 06:32:36;;;;;;;3.25;2.25;;;;;;;;;;4957788;29;20074;-78
2022/07/16 06:35:02;;;;;;;3.28;2.13;;;;;;;;;;4958074;29;20577;-78
2022/07/16 06:37:30;;;;;;;2.00;1.90;;;;;;;;;;4957082;28;20533;-77
2022/07/16 06:39:56;;;;;;;2.35;1.90;;;;;;;;;;4957244;29;20031;-77
2022/07/16 06:42:22;;;;;;;3.22;1.98;;;;;;;;;;4957306;28;20050;-77
2022/07/16 06:44:49;;;;;;;2.17;1.52;;;;;;;;;;4957773;29;20532;-77
2022/07/16 06:47:15;;;;;;;3.35;2.38;;;;;;;;;;4957471;29;20047;-77
2022/07/16 06:49:41;;;;;;;1.85;1.75;;;;;;;;;;4957364;28;20067;-78
2022/07/16 06:52:07;;;;;;;3.15;1.95;;;;;;;;;;4956752;28;20565;-78
2022/07/16 06:54:33;;;;;;;2.72;2.30;;;;;;;;;;4957295;29;20039;-78
2022/07/16 06:56:59;;;;;;;2.90;1.88;;;;;;;;;;4955980;29;20050;-78
2022/07/16 06:59:26;;;;;;;2.78;2.20;;;;;;;;;;4957709;29;20039;-78
2022/07/16 07:01:52;;;;;;;2.47;2.28;;;;;;;;;;4957227;29;20089;-78
2022/07/16 07:04:18;;;;;;;3.10;1.85;;;;;;;;;;4957152;29;20139;-78
2022/07/16 07:06:44;;;;;;;2.83;2.00;;;;;;;;;;4957244;29;20066;-78
2022/07/16 07:09:10;;;;;;;2.20;2.00;;;;;;;;;;4957701;29;20071;-78
2022/07/16 07:11:36;;;;;;;4.75;2.10;;;;;;;;;;4956919;29;20086;-78
2022/07/16 07:14:02;;;;;;;2.85;2.05;;;;;;;;;;4957266;29;20129;-78
2022/07/16 07:16:28;;;;;;;3.35;2.30;;;;;;;;;;4956985;28;20050;-78
2022/07/16 07:18:55;;;;;;;2.78;1.90;;;;;;;;;;4957064;29;20068;-78
2022/07/16 07:21:21;;;;;;;3.13;2.17;;;;;;;;;;4956621;29;20150;-78
2022/07/16 07:23:47;;;;;;;3.17;2.00;;;;;;;;;;4956613;29;20039;-78
2022/07/16 07:26:13;;;;;;;3.00;2.08;;;;;;;;;;4956668;28;20079;-75
2022/07/16 07:28:39;;;;;;;2.92;2.38;;;;;;;;;;4955983;29;20494;-77
2022/07/16 07:31:05;;;;;;;6.03;2.67;;;;;;;;;;4956131;28;20050;-77
2022/07/16 07:33:32;;;;;;;9.60;2.67;;;;;;;;;;4956137;28;20043;-77
2022/07/16 07:35:58;;;;;;;6.63;2.47;;;;;;;;;;4956435;29;20069;-76
2022/07/16 07:38:24;;;;;;;2.67;1.90;;;;;;;;;;4957241;28;20537;-77
2022/07/16 07:40:50;;;;;;;4.00;2.45;;;;;;;;;;4956622;29;20513;-76
2022/07/16 07:43:19;;;;;;;3.13;2.00;;;;;;;;;;4957439;28;20047;-76
2022/07/16 07:45:45;;;;;;;4.25;2.30;;;;;;;;;;4966361;28;20117;-80
2022/07/16 07:48:13;;;;;;;3.10;2.08;;;;;;;;;;4972850;28;20454;-77
2022/07/16 07:50:39;;;;;;;4.55;1.90;;;;;;;;;;4975242;28;20050;-77
2022/07/16 07:53:05;;;;;;;5.97;2.28;;;;;;;;;;4975850;28;20445;-77
2022/07/16 07:55:31;;;;;;;2.45;2.25;;;;;;;;;;4962932;28;20038;-79
2022/07/16 07:57:58;;;;;;;5.13;2.13;;;;;;;;;;4966096;28;20580;-78
2022/07/16 08:00:24;;;;;;;2.30;2.10;;;;;;;;;;4963453;28;20051;-76
2022/07/16 08:02:50;;;;;;;2.60;2.40;;;;;;;;;;4970992;28;20053;-79
2022/07/16 08:05:17;;;;;;;2.40;2.20;;;;;;;;;;4973773;28;20527;-80
2022/07/16 08:07:43;;;;;;;3.80;2.45;;;;;;;;;;4971791;28;20035;-78
2022/07/16 08:10:09;;;;;;;5.28;2.40;;;;;;;;;;4960913;28;20138;-78
2022/07/16 08:12:37;;;;;;;3.70;2.20;;;;;;;;;;4956120;28;20110;-78
2022/07/16 08:15:03;;;;;;;2.00;1.90;;;;;;;;;;4973553;28;20126;-78
2022/07/16 08:17:29;;;;;;;4.50;2.40;;;;;;;;;;4963479;28;20085;-78
2022/07/16 08:19:56;;;;;;;2.10;2.00;;;;;;;;;;4960407;28;20076;-79
2022/07/16 08:22:22;;;;;;;2.58;1.92;;;;;;;;;;4956661;28;20050;-78
2022/07/16 08:27:38;;;;;;;4.03;1.80;;;;;;;;;;4957736;28;20069;-78
2022/07/16 08:30:09;;;;;;;2.47;2.28;;;;;;;;;;4971880;28;20074;-78
2022/07/16 08:32:35;;;;;;;2.08;1.88;;;;;;;;;;4972834;28;20050;-78
2022/07/16 08:35:01;;;;;;;3.53;1.63;;;;;;;;;;4975225;28;20035;-77
2022/07/16 08:37:35;;;;;;;3.03;1.95;;;;;;;;;;4969325;28;20040;-78
2022/07/16 08:40:05;;;;;;;3.08;1.85;;;;;;;;;;4960255;28;20045;-77
2022/07/16 08:42:35;;;;;;;2.90;1.80;;;;;;;;;;4956200;28;20086;-78
2022/07/16 08:45:02;;;;;;;2.20;1.90;;;;;;;;;;4966631;28;20049;-76
2022/07/16 08:47:29;;;;;;;2.10;1.90;;;;;;;;;;4965357;28;20074;-78
2022/07/16 08:49:56;;;;;;;2.15;1.73;;;;;;;;;;4959702;28;20082;-77
2022/07/16 08:52:25;;;;;;;1.92;1.80;;;;;;;;;;4965909;28;20399;-77
2022/07/16 08:54:53;;;;;;;2.17;1.95;;;;;;;;;;4978815;28;20047;-77
2022/07/16 08:57:19;;;;;;;2.33;1.95;;;;;;;;;;4973927;28;20491;-77
2022/07/16 08:59:45;;;;;;;2.88;1.70;;;;;;;;;;4974090;28;20043;-76
2022/07/16 09:02:12;;;;;;;2.65;1.88;;;;;;;;;;4976582;28;20047;-77
2022/07/16 09:04:42;;;;;;;3.13;1.92;;;;;;;;;;4977058;28;20043;-78
2022/07/16 09:07:11;;;;;;;4.05;1.60;;;;;;;;;;4973605;28;20141;-82
2022/07/16 09:09:37;;;;;;;4.25;2.00;;;;;;;;;;4969074;28;20043;-77
2022/07/16 09:12:07;;;;;;;1.90;1.80;;;;;;;;;;4965824;28;20063;-76
2022/07/16 09:14:33;;;;;;;2.85;2.00;;;;;;;;;;4968739;28;20038;-77
2022/07/16 09:17:01;;;;;;;4.63;1.60;;;;;;;;;;4960380;28;20035;-76
2022/07/16 09:19:28;;;;;;;3.10;1.90;;;;;;;;;;4970442;28;20047;-77
2022/07/16 09:22:21;;;;;;;3.13;1.88;;;;;;;;;;4966535;28;20486;-76
2022/07/16 09:24:54;;;;;;;1.92;1.63;;;;;;;;;;4974663;28;20126;-78
2022/07/16 09:27:24;;;;;;;2.35;1.80;;;;;;;;;;4976460;28;20031;-75
2022/07/16 09:29:51;;;;;;;4.50;1.98;;;;;;;;;;4964051;28;20529;-77
2022/07/16 09:32:29;;;;;;;2.00;1.80;;;;;;;;;;4976984;28;20129;-74
2022/07/16 09:35:05;;;;;;;4.40;1.55;;;;;;;;;;4973617;28;20039;-76
2022/07/16 09:37:49;;;;;;;4.88;1.98;;;;;;;;;;4972728;28;20125;-83
2022/07/16 09:40:28;;;;;;;1.90;1.80;;;;;;;;;;4973484;28;20035;-74
2022/07/16 09:42:56;;;;;;;1.55;1.45;;;;;;;;;;4965083;28;20047;-76
2022/07/16 09:45:22;;;;;;;3.13;1.80;;;;;;;;;;4964702;28;20039;-77
2022/07/16 09:47:49;;;;;;;1.90;1.70;;;;;;;;;;4977078;28;20047;-78
2022/07/16 09:50:18;;;;;;;2.33;2.00;;;;;;;;;;4966844;28;20047;-76
2022/07/16 09:52:44;;;;;;;2.80;1.98;;;;;;;;;;4957140;28;20055;-76
2022/07/16 09:55:32;;;;;;;6.65;2.20;;;;;;;;;;4956063;28;20042;-77
2022/07/16 10:04:23;;;;;;;2.10;1.98;;;;;;;;;;4908953;29;20116;-83
2022/07/16 10:07:01;;;;;;;1.90;1.73;;;;;;;;;;4939220;29;20043;-79
2022/07/16 10:09:30;;;;;;;3.05;1.88;;;;;;;;;;4936434;29;20126;-79
2022/07/16 10:12:18;;;;;;;2.55;1.92;;;;;;;;;;4954421;29;20070;-77
2022/07/16 10:17:52;;;;;;;3.95;1.80;;;;;;;;;;4935255;29;20225;-76
2022/07/16 10:23:28;;;;;;;1.70;1.60;;;;;;;;;;4954585;29;20093;-76
2022/07/16 10:26:32;;;;;;;4.10;1.70;;;;;;;;;;4955336;29;20071;-76
2022/07/16 10:35:21;;;;;;;1.65;1.52;;;;;;;;;;4971116;28;20437;-76
2022/07/16 10:38:04;;;;;;;2.22;1.55;;;;;;;;;;4993200;28;20088;-77
2022/07/16 10:43:43;;;;;;;2.08;1.77;;;;;;;;;;4956610;28;20572;-78
2022/07/16 10:46:12;;;;;;;3.53;1.90;;;;;;;;;;4986159;28;20074;-77
2022/07/16 10:48:38;;;;;;;1.65;1.52;;;;;;;;;;4987343;28;20564;-77
2022/07/16 10:51:17;;;;;;;2.13;1.75;;;;;;;;;;4973197;28;20117;-77
2022/07/16 10:54:01;;;;;;;2.60;1.80;;;;;;;;;;4973570;28;20046;-77
2022/07/16 10:56:39;;;;;;;2.67;1.70;;;;;;;;;;4979788;28;20081;-76
2022/07/16 10:59:10;;;;;;;3.05;1.80;;;;;;;;;;4993426;28;20034;-76
2022/07/16 11:01:37;;;;;;;1.90;1.70;;;;;;;;;;4989617;28;20038;-76
2022/07/16 11:04:04;;;;;;;3.88;1.65;;;;;;;;;;4974723;28;20122;-76
2022/07/16 11:06:31;;;;;;;3.53;2.10;;;;;;;;;;4973755;28;20037;-76
2022/07/16 11:08:58;;;;;;;3.88;1.80;;;;;;;;;;4965030;28;20047;-76
2022/07/16 11:11:31;;;;;;;3.95;1.67;;;;;;;;;;4959176;28;20054;-76
2022/07/16 11:13:57;;;;;;;3.22;1.67;;;;;;;;;;4974559;28;20046;-76
2022/07/16 11:16:23;;;;;;;1.88;1.60;;;;;;;;;;4976025;28;20576;-76
2022/07/16 11:18:49;;;;;;;1.80;1.60;;;;;;;;;;4965902;28;20519;-76
2022/07/16 11:21:15;;;;;;;2.35;1.60;;;;;;;;;;4960443;28;20041;-76
2022/07/16 11:23:51;;;;;;;3.08;2.00;;;;;;;;;;4975872;28;20042;-76
2022/07/16 11:26:19;;;;;;;4.07;1.40;;;;;;;;;;4975202;28;20133;-77
2022/07/16 11:28:56;;;;;;;2.42;1.70;;;;;;;;;;4964941;28;20057;-77
2022/07/16 11:31:26;;;;;;;2.35;1.80;;;;;;;;;;4968129;28;20073;-78
2022/07/16 11:33:52;;;;;;;;;;;;;;;;;;4963256;28;20573;-77
2022/07/16 11:36:19;;;;;;;1.83;1.73;;;;;;;;;;4973191;28;19936;-77
2022/07/16 11:38:46;;;;;;;1.98;1.60;;;;;;;;;;4975280;28;20054;-77
2022/07/16 11:41:12;;;;;;;2.50;1.33;;;;;;;;;;4974051;28;20588;-78
2022/07/16 11:43:38;;;;;;;1.70;1.60;;;;;;;;;;4974383;28;20494;-78
2022/07/16 11:46:05;;;;;;;4.38;1.60;;;;;;;;;;4967009;28;20062;-76
2022/07/16 11:48:37;;;;;;;2.67;1.48;;;;;;;;;;4955390;28;20047;-77
2022/07/16 11:51:07;;;;;;;1.70;1.60;;;;;;;;;;4958082;28;20110;-77
2022/07/16 11:53:36;;;;;;;2.45;1.63;;;;;;;;;;4952821;28;20379;-77
2022/07/16 11:56:03;;;;;;;1.58;1.48;;;;;;;;;;4955314;28;20545;-77
2022/07/16 11:58:29;;;;;;;1.90;1.58;;;;;;;;;;4949853;28;20039;-77
2022/07/16 12:00:55;;;;;;;2.00;1.50;;;;;;;;;;4955193;28;20042;-77
2022/07/16 12:03:22;;;;;;;1.60;1.50;;;;;;;;;;4964645;28;20037;-77
2022/07/16 12:05:59;;;;;;;2.90;1.52;;;;;;;;;;4971069;28;20046;-76
2022/07/16 12:08:25;;;;;;;2.75;1.60;;;;;;;;;;4974426;28;20106;-76
2022/07/16 12:10:59;;;;;;;2.00;1.80;;;;;;;;;;4971048;28;20461;-77
2022/07/16 12:13:28;;;;;;;5.45;1.55;;;;;;;;;;4968178;28;20122;-78
2022/07/16 12:15:56;;;;;;;4.70;1.58;;;;;;;;;;4973629;28;20090;-78
2022/07/16 12:18:23;;;;;;;1.70;1.60;;;;;;;;;;4973351;28;20066;-77
2022/07/16 12:20:50;;;;;;;1.50;1.35;;;;;;;;;;4959234;28;20042;-77
2022/07/16 12:23:30;;;;;;;2.08;1.60;;;;;;;;;;4958385;28;20470;-79
2022/07/16 12:26:03;;;;;;;1.70;1.60;;;;;;;;;;4959255;28;20537;-77
2022/07/16 12:28:30;;;;;;;1.70;1.60;;;;;;;;;;4957258;29;20043;-77
2022/07/16 12:31:01;;;;;;;1.60;1.50;;;;;;;;;;4962838;28;20513;-77
2022/07/16 12:33:29;;;;;;;1.33;1.23;;;;;;;;;;4977707;28;20043;-77
2022/07/16 12:36:00;;;;;;;1.95;1.38;;;;;;;;;;4975931;28;20034;-77
2022/07/16 12:38:55;;;;;;;3.47;1.77;;;;;;;;;;4976724;28;20493;-76
2022/07/16 12:41:26;;;;;;;2.55;1.45;;;;;;;;;;4975755;28;20047;-76
2022/07/16 12:43:53;;;;;;;3.28;1.60;;;;;;;;;;4977101;28;20031;-76
2022/07/16 12:46:21;;;;;;;1.42;1.30;;;;;;;;;;4976931;28;20038;-76
2022/07/16 12:48:51;;;;;;;1.90;1.58;;;;;;;;;;4978108;28;20106;-76
2022/07/16 12:51:19;;;;;;;2.35;1.80;;;;;;;;;;4976152;28;20045;-77
2022/07/16 12:53:46;;;;;;;2.10;1.88;;;;;;;;;;4976214;28;20097;-76
2022/07/16 12:58:57;;;;;;;1.60;1.50;;;;;;;;;;4977601;28;20069;-76
2022/07/16 13:01:27;;;;;;;3.55;1.70;;;;;;;;;;4976681;28;20086;-76
2022/07/16 13:03:54;;;;;;;2.85;1.70;;;;;;;;;;4977415;28;20051;-77
2022/07/16 13:06:20;;;;;;;4.43;1.60;;;;;;;;;;4977469;28;20035;-78
2022/07/16 13:08:46;;;;;;;1.63;1.52;;;;;;;;;;4962027;28;20047;-76
2022/07/16 13:11:13;;;;;;;1.85;1.60;;;;;;;;;;4958386;28;20090;-76
2022/07/16 13:13:40;;;;;;;1.60;1.50;;;;;;;;;;4967763;28;20081;-76
2022/07/16 13:16:10;;;;;;;2.72;1.70;;;;;;;;;;4975131;28;20030;-76
2022/07/16 13:18:37;;;;;;;1.73;1.63;;;;;;;;;;4975456;28;20055;-77
2022/07/16 13:21:03;;;;;;;1.40;1.30;;;;;;;;;;4975253;28;20600;-77
2022/07/16 13:23:29;;;;;;;1.33;1.23;;;;;;;;;;4975036;28;20064;-76
2022/07/16 13:25:56;;;;;;;1.70;1.60;;;;;;;;;;4976683;28;20042;-76
2022/07/16 13:28:22;;;;;;;3.83;1.50;;;;;;;;;;4977310;28;20050;-77
2022/07/16 13:30:48;;;;;;;2.25;1.70;;;;;;;;;;4977121;28;20042;-77
2022/07/16 13:33:15;;;;;;;1.50;1.38;;;;;;;;;;4977182;28;20047;-77
2022/07/16 13:35:41;;;;;;;2.30;1.52;;;;;;;;;;4977656;28;20038;-77
2022/07/16 13:38:08;;;;;;;2.05;1.35;;;;;;;;;;4977635;28;20061;-76
2022/07/16 13:40:34;;;;;;;2.65;1.70;;;;;;;;;;4975914;28;20402;-77
2022/07/16 13:43:00;;;;;;;1.40;1.30;;;;;;;;;;4977962;28;20043;-77
2022/07/16 13:45:27;;;;;;;4.05;1.48;;;;;;;;;;4977153;28;20043;-77
2022/07/16 13:47:53;;;;;;;1.63;1.52;;;;;;;;;;4976586;28;20051;-77
2022/07/16 13:50:20;;;;;;;1.55;1.45;;;;;;;;;;4977105;28;20093;-77
2022/07/16 13:52:46;;;;;;;2.88;1.42;;;;;;;;;;4976875;28;20054;-77
2022/07/16 13:55:13;;;;;;;4.15;1.55;;;;;;;;;;4976252;28;20077;-77
2022/07/16 14:00:34;;;;;;;2.47;1.83;;;;;;;;;;4957692;29;20113;-78
2022/07/16 14:03:00;;;;;;;1.35;1.25;;;;;;;;;;4975922;28;20165;-77
2022/07/16 14:05:27;;;;;;;1.50;1.40;;;;;;;;;;4976822;28;20189;-77
2022/07/16 14:07:53;;;;;;;2.45;1.38;;;;;;;;;;4968186;28;20464;-77
2022/07/16 14:10:19;;;;;;;5.55;1.50;;;;;;;;;;4957733;28;20454;-76
2022/07/16 14:12:46;;;;;;;1.40;1.30;;;;;;;;;;4952850;29;20043;-77
2022/07/16 14:15:12;;;;;;;1.77;1.40;;;;;;;;;;4956369;29;20047;-77
2022/07/16 14:17:42;;;;;;;4.55;1.83;;;;;;;;;;4956538;28;20050;-77
2022/07/16 14:20:09;;;;;;;3.53;1.50;;;;;;;;;;4956494;29;20059;-78
2022/07/16 14:22:35;;;;;;;1.58;1.35;;;;;;;;;;4955932;29;20263;-77
2022/07/16 14:25:02;;;;;;;2.80;1.30;;;;;;;;;;4952674;28;20130;-76
2022/07/16 14:27:28;;;;;;;1.80;1.20;;;;;;;;;;4956959;28;20082;-75
2022/07/16 14:29:54;;;;;;;1.38;1.20;;;;;;;;;;4956418;28;20042;-75
2022/07/16 14:32:20;;;;;;;1.65;1.20;;;;;;;;;;4956477;29;20079;-75
2022/07/16 14:34:47;;;;;;;1.10;1.10;;;;;;;;;;4956493;29;20050;-76
2022/07/16 14:37:13;;;;;;;1.30;1.20;;;;;;;;;;4955787;29;20511;-75
2022/07/16 14:39:39;;;;;;;4.70;1.40;;;;;;;;;;4956269;29;20074;-75
2022/07/16 14:42:05;;;;;;;1.08;0.98;;;;;;;;;;4955295;28;20134;-76
2022/07/16 14:44:32;;;;;;;1.63;1.10;;;;;;;;;;4956088;28;20035;-75
2022/07/16 14:46:58;;;;;;;1.33;1.20;;;;;;;;;;4954627;29;20426;-75
2022/07/16 14:49:24;;;;;;;1.50;1.27;;;;;;;;;;4971094;28;20078;-76
2022/07/16 14:51:50;;;;;;;2.40;1.23;;;;;;;;;;4975155;28;20051;-75
2022/07/16 14:54:17;;;;;;;1.52;1.30;;;;;;;;;;4976177;28;20047;-76
2022/07/16 14:56:43;;;;;;;2.58;1.20;;;;;;;;;;4975296;28;20054;-75
2022/07/16 14:59:09;;;;;;;1.40;1.30;;;;;;;;;;4975722;28;20720;-76
2022/07/16 15:01:36;;;;;;;1.73;1.35;;;;;;;;;;4975021;28;20130;-76
2022/07/16 15:04:03;;;;;;;3.15;1.80;;;;;;;;;;4975849;28;20581;-74
2022/07/16 15:06:29;;;;;;;2.10;1.25;;;;;;;;;;4974909;28;20666;-75
2022/07/16 15:08:56;;;;;;;3.40;1.30;;;;;;;;;;4958214;28;20383;-75
2022/07/16 15:11:22;;;;;;;2.03;1.13;;;;;;;;;;4956045;29;20122;-76
2022/07/16 15:13:48;;;;;;;1.77;1.20;;;;;;;;;;4956087;29;20043;-76
2022/07/16 15:16:14;;;;;;;1.45;1.20;;;;;;;;;;4955650;29;20094;-76
2022/07/16 15:18:40;;;;;;;1.42;1.20;;;;;;;;;;4958021;28;20434;-76
2022/07/16 15:21:07;;;;;;;1.63;1.30;;;;;;;;;;4960503;28;20074;-76
2022/07/16 15:23:33;;;;;;;1.45;1.35;;;;;;;;;;4956170;29;20093;-75
2022/07/16 15:25:59;;;;;;;1.40;1.30;;;;;;;;;;4955505;28;20039;-74